Home > Products > Valid Products > TAF

000
FTUS44 KMEG 061521 AAD
TAFJBR
TAF AMD
KJBR 061521Z 0615/0712 20010KT P6SM OVC010
     FM061600 22012KT P6SM SCT025 BKN050
     FM062000 21015G23KT P6SM VCTS SCT025CB BKN100
     FM070200 20006KT P6SM SCT040 OVC150=



000
FTUS44 KMEG 061520 AAB
TAFMKL
TAF AMD
KMKL 061520Z 0615/0712 19006KT P6SM FEW070
     FM061800 23008KT P6SM OVC015
     FM062200 23008KT P6SM VCTS SCT025CB BKN035
     FM070200 19008KT P6SM BKN030 OVC120=



000
FTUS44 KMEG 061453 AAC
TAFMEM
TAF AMD
KMEM 061453Z 0615/0712 21007KT P6SM VCSH SCT010 OVC014
     FM061600 22010KT P6SM SCT025 BKN035
     FM062200 20008KT P6SM VCTS SCT040CB
     FM070200 19007KT P6SM BKN040 BKN200=



000
FTUS44 KMEG 061453 AAC
TAFMEM
TAF AMD
KMEM 061453Z 0615/0712 21007KT P6SM VCSH SCT010 OVC014
     FM061600 22010KT P6SM SCT025 BKN035
     FM062200 20008KT P6SM VCTS SCT040CB
     FM070200 19007KT P6SM BKN040 BKN200=



000
FTUS44 KMEG 061418 AAB
TAFTUP
TAF AMD
KTUP 061418Z 0614/0712 23005KT P6SM BKN020
     FM061600 23005KT 5SM TSRA OVC005CB
     FM061800 24007KT P6SM SCT025 BKN035
     FM070500 19004KT P6SM SCT025 BKN150=



000
FTUS44 KMEG 061418 AAB
TAFTUP
TAF AMD
KTUP 061418Z 0614/0712 23005KT P6SM BKN020
     FM061600 23005KT 5SM TSRA OVC005CB
     FM061800 24007KT P6SM SCT025 BKN035
     FM070500 19004KT P6SM SCT025 BKN150=



000
FTUS44 KMEG 061416 AAC
TAFJBR
TAF AMD
KJBR 061416Z 0614/0712 20010KT P6SM OVC009
     FM061600 22012KT P6SM SCT025 BKN050
     FM062000 21015G23KT P6SM VCTS SCT025CB BKN100
     FM070200 20006KT P6SM SCT040 OVC150=



000
FTUS44 KMEG 061415 AAA
TAFMKL
TAF AMD
KMKL 061415Z 0614/0712 19005KT P6SM BKN050
     FM061600 23008KT P6SM OVC015
     FM062200 23008KT P6SM VCTS SCT025CB BKN035
     FM070200 19008KT P6SM BKN030 OVC120=



000
FTUS44 KMEG 061411 AAB
TAFMEM
TAF AMD
KMEM 061411Z 0614/0712 19007KT P6SM SCT010 OVC015
     FM061600 22010KT P6SM SCT025 BKN035
     FM062200 20008KT P6SM VCTS SCT040CB
     FM070200 19007KT P6SM BKN040 BKN200=



000
FTUS44 KMEG 061356 AAA
TAFTUP
TAF AMD
KTUP 061356Z 0614/0712 21005KT P6SM OVC005
     FM061600 23005KT 5SM TSRA OVC005CB
     FM061800 24007KT P6SM SCT025 BKN035
     FM070500 19004KT P6SM SCT025 BKN150=



000
FTUS44 KMEG 061356 AAA
TAFTUP
TAF AMD
KTUP 061356Z 0614/0712 21005KT P6SM OVC005
     FM061600 23005KT 5SM TSRA OVC005CB
     FM061800 24007KT P6SM SCT025 BKN035
     FM070500 19004KT P6SM SCT025 BKN150=



000
FTUS44 KMEG 061345 AAB
TAFJBR
TAF AMD
KJBR 061345Z 0614/0712 18008KT P6SM OVC006
     FM061600 22012KT P6SM SCT025 BKN050
     FM062000 21015G23KT P6SM VCTS SCT025CB BKN100
     FM070200 20006KT P6SM SCT040 OVC150=



000
FTUS44 KMEG 061329 AAA
TAFMEM
TAF AMD
KMEM 061329Z 0613/0712 21006KT P6SM SCT010 OVC015
     FM061600 22010KT P6SM SCT025 BKN035
     FM062200 20008KT P6SM VCTS SCT040CB
     FM070200 19007KT P6SM BKN040 BKN200=



000
FTUS44 KMEG 061329 AAA
TAFMEM
TAF AMD
KMEM 061329Z 0613/0712 21006KT P6SM SCT010 OVC015
     FM061600 22010KT P6SM SCT025 BKN035
     FM062200 20008KT P6SM VCTS SCT040CB
     FM070200 19007KT P6SM BKN040 BKN200=



000
FTUS44 KMEG 061248 AAA
TAFJBR
TAF AMD
KJBR 061248Z 0613/0712 21008KT P6SM SCT010 BKN050
      TEMPO 0613/0615 BKN005
     FM061600 22012KT P6SM SCT025 BKN050
     FM062000 21015G23KT P6SM VCTS SCT025CB BKN100
     FM070200 20006KT P6SM SCT040 OVC150=



000
FTUS44 KMEG 061126
TAFMEM
TAF
KMEM 061126Z 0612/0712 21006KT P6SM SCT010 OVC050
      TEMPO 0612/0614 BKN007
     FM061600 22010KT P6SM SCT025 BKN035
     FM062200 20008KT P6SM VCTS SCT040CB
     FM070200 19007KT P6SM BKN040 BKN200=



000
FTUS44 KMEG 061126
TAFMKL
TAF
KMKL 061126Z 0612/0712 21006KT P6SM SCT015
     FM061600 23008KT P6SM SCT030 BKN100
     FM062200 23008KT P6SM VCTS SCT025CB BKN035
     FM070200 19008KT P6SM BKN030 OVC120=



000
FTUS44 KMEG 061126
TAFJBR
TAF
KJBR 061126Z 0612/0712 21008KT P6SM SCT010 BKN050
     FM061600 22012KT P6SM SCT025 BKN050
     FM062000 21015G23KT P6SM VCTS SCT025CB BKN100
     FM070200 20006KT P6SM SCT040 OVC150=



000
FTUS44 KMEG 061126
TAFTUP
TAF
KTUP 061126Z 0612/0712 21005KT 4SM BR BKN005
      TEMPO 0612/0613 2SM BR OVC002
     FM061400 23005KT P6SM BKN010
     FM061600 24007KT P6SM SCT025 BKN035
     FM070500 19004KT P6SM SCT025 BKN150=



000
FTUS44 KMEG 061126
TAFTUP
TAF
KTUP 061126Z 0612/0712 21005KT 4SM BR BKN005
      TEMPO 0612/0613 2SM BR OVC002
     FM061400 23005KT P6SM BKN010
     FM061600 24007KT P6SM SCT025 BKN035
     FM070500 19004KT P6SM SCT025 BKN150=



000
FTUS44 KMEG 061126
TAFJBR
TAF
KJBR 061126Z 0612/0712 21008KT P6SM SCT010 BKN050
     FM061600 22012KT P6SM SCT025 BKN050
     FM062000 21015G23KT P6SM VCTS SCT025CB BKN100
     FM070200 20006KT P6SM SCT040 OVC150=



000
FTUS44 KMEG 061126
TAFMEM
TAF
KMEM 061126Z 0612/0712 21006KT P6SM SCT010 OVC050
      TEMPO 0612/0614 BKN007
     FM061600 22010KT P6SM SCT025 BKN035
     FM062200 20008KT P6SM VCTS SCT040CB
     FM070200 19007KT P6SM BKN040 BKN200=



000
FTUS44 KMEG 061126
TAFMKL
TAF
KMKL 061126Z 0612/0712 21006KT P6SM SCT015
     FM061600 23008KT P6SM SCT030 BKN100
     FM062200 23008KT P6SM VCTS SCT025CB BKN035
     FM070200 19008KT P6SM BKN030 OVC120=



000
FTUS44 KMEG 060859 AAA
TAFTUP
TAF AMD
KTUP 060859Z 0609/0706 00000KT 5SM BR SCT003
      TEMPO 0610/0613 2SM BR BKN003
     FM061300 21005KT P6SM BKN005
     FM061400 23005KT P6SM SCT012
     FM061600 24008KT P6SM SCT025 BKN035
     FM061800 24008KT P6SM VCTS SCT025CB BKN035
     FM070100 19004KT P6SM SCT150=



000
FTUS44 KMEG 060859 AAA
TAFTUP
TAF AMD
KTUP 060859Z 0609/0706 00000KT 5SM BR SCT003
      TEMPO 0610/0613 2SM BR BKN003
     FM061300 21005KT P6SM BKN005
     FM061400 23005KT P6SM SCT012
     FM061600 24008KT P6SM SCT025 BKN035
     FM061800 24008KT P6SM VCTS SCT025CB BKN035
     FM070100 19004KT P6SM SCT150=



000
FTUS44 KMEG 060855 AAA
TAFMEM
TAF AMD
KMEM 060855Z 0609/0706 21005KT P6SM BKN040
      TEMPO 0610/0613 4SM BR BKN006
     FM061400 22007KT P6SM SCT015
     FM061600 22010KT P6SM SCT025 BKN035
     FM061800 22010KT P6SM VCTS SCT025CB BKN035
     FM070100 20008KT P6SM SCT150=



000
FTUS44 KMEG 060526
TAFTUP
TAF
KTUP 060526Z 0606/0706 24003KT 4SM BR SCT003
      TEMPO 0606/0609 1SM BR BKN003
     FM060900 00000KT 1SM BR BKN003
      TEMPO 0609/0613 1/4SM FG VV002
     FM061300 21005KT 2SM BR BKN005
     FM061400 23005KT P6SM SCT012
     FM061600 24008KT P6SM SCT025 BKN035
     FM061800 24008KT P6SM VCTS SCT025CB BKN035
     FM070100 19004KT P6SM SCT150=



000
FTUS44 KMEG 060526
TAFJBR
TAF
KJBR 060526Z 0606/0706 21006KT 5SM BR SKC
      TEMPO 0609/0613 3SM BR BKN006
     FM061400 21008KT P6SM SCT015
     FM061600 22012G18KT P6SM SCT025 BKN035
     FM061800 21015G23KT P6SM VCTS SCT025CB BKN035
     FM070100 20008KT P6SM SCT150=



000
FTUS44 KMEG 060526
TAFMEM
TAF
KMEM 060526Z 0606/0706 21005KT P6SM BKN040
      TEMPO 0610/0613 4SM BR BKN006
     FM061400 22007KT P6SM SCT015
     FM061600 22010KT P6SM SCT025 BKN035
     FM061800 22010KT P6SM VCTS SCT025CB BKN035
     FM070100 20008KT P6SM SCT150=



000
FTUS44 KMEG 060526
TAFMKL
TAF
KMKL 060526Z 0606/0706 20003KT 5SM BR SKC
      TEMPO 0606/0609 2SM BR
     FM060900 00000KT 2SM BR SCT003
      TEMPO 0609/0613 1/2SM FG VV002
     FM061400 22006KT P6SM SCT015
     FM061600 23008KT P6SM SCT025 BKN035
     FM061800 23008KT P6SM VCTS SCT025CB BKN035
     FM070100 19006KT P6SM SCT150=



000
FTUS44 KMEG 060526
TAFMEM
TAF
KMEM 060526Z 0606/0706 21005KT P6SM BKN040
      TEMPO 0610/0613 4SM BR BKN006
     FM061400 22007KT P6SM SCT015
     FM061600 22010KT P6SM SCT025 BKN035
     FM061800 22010KT P6SM VCTS SCT025CB BKN035
     FM070100 20008KT P6SM SCT150=



000
FTUS44 KMEG 060526
TAFMKL
TAF
KMKL 060526Z 0606/0706 20003KT 5SM BR SKC
      TEMPO 0606/0609 2SM BR
     FM060900 00000KT 2SM BR SCT003
      TEMPO 0609/0613 1/2SM FG VV002
     FM061400 22006KT P6SM SCT015
     FM061600 23008KT P6SM SCT025 BKN035
     FM061800 23008KT P6SM VCTS SCT025CB BKN035
     FM070100 19006KT P6SM SCT150=



000
FTUS44 KMEG 060526
TAFTUP
TAF
KTUP 060526Z 0606/0706 24003KT 4SM BR SCT003
      TEMPO 0606/0609 1SM BR BKN003
     FM060900 00000KT 1SM BR BKN003
      TEMPO 0609/0613 1/4SM FG VV002
     FM061300 21005KT 2SM BR BKN005
     FM061400 23005KT P6SM SCT012
     FM061600 24008KT P6SM SCT025 BKN035
     FM061800 24008KT P6SM VCTS SCT025CB BKN035
     FM070100 19004KT P6SM SCT150=



000
FTUS44 KMEG 060526
TAFJBR
TAF
KJBR 060526Z 0606/0706 21006KT 5SM BR SKC
      TEMPO 0609/0613 3SM BR BKN006
     FM061400 21008KT P6SM SCT015
     FM061600 22012G18KT P6SM SCT025 BKN035
     FM061800 21015G23KT P6SM VCTS SCT025CB BKN035
     FM070100 20008KT P6SM SCT150=



000
FTUS44 KMEG 060249 AAA
TAFTUP
TAF AMD
KTUP 060249Z 0603/0624 23004KT P6SM SCT250
     FM060500 00000KT 4SM BR SCT003
      TEMPO 0605/0609 1SM BR BKN003
     FM060900 00000KT 1SM BR BKN003
      TEMPO 0609/0613 1/4SM FG VV002
     FM061300 21005KT 2SM BR BKN005
     FM061400 23005KT P6SM SCT012
     FM061600 24008KT P6SM SCT025 BKN035
     FM061800 24008KT P6SM VCTS SCT025CB BKN035=



000
FTUS44 KMEG 060249 AAA
TAFTUP
TAF AMD
KTUP 060249Z 0603/0624 23004KT P6SM SCT250
     FM060500 00000KT 4SM BR SCT003
      TEMPO 0605/0609 1SM BR BKN003
     FM060900 00000KT 1SM BR BKN003
      TEMPO 0609/0613 1/4SM FG VV002
     FM061300 21005KT 2SM BR BKN005
     FM061400 23005KT P6SM SCT012
     FM061600 24008KT P6SM SCT025 BKN035
     FM061800 24008KT P6SM VCTS SCT025CB BKN035=



000
FTUS44 KMEG 060248 AAA
TAFMKL
TAF AMD
KMKL 060248Z 0603/0624 20003KT P6SM SKC
     FM060500 00000KT 5SM BR SKC
      TEMPO 0605/0609 2SM BR
     FM060900 00000KT 2SM BR SCT003
      TEMPO 0609/0613 1/2SM FG VV002
     FM061400 22006KT P6SM SCT015
     FM061600 23008KT P6SM SCT025 BKN035
     FM061800 23008KT P6SM VCTS SCT025CB BKN035=



000
FTUS44 KMEG 060248 AAA
TAFMKL
TAF AMD
KMKL 060248Z 0603/0624 20003KT P6SM SKC
     FM060500 00000KT 5SM BR SKC
      TEMPO 0605/0609 2SM BR
     FM060900 00000KT 2SM BR SCT003
      TEMPO 0609/0613 1/2SM FG VV002
     FM061400 22006KT P6SM SCT015
     FM061600 23008KT P6SM SCT025 BKN035
     FM061800 23008KT P6SM VCTS SCT025CB BKN035=



000
FTUS44 KMEG 060247 AAA
TAFMEM
TAF AMD
KMEM 060247Z 0603/0624 21005KT P6SM SKC
      TEMPO 0610/0613 4SM BR BKN006
     FM061400 22007KT P6SM SCT015
     FM061600 22010KT P6SM SCT025 BKN035
     FM061800 22010KT P6SM VCTS SCT025CB BKN035=



000
FTUS44 KMEG 060247 AAB
TAFJBR
TAF AMD
KJBR 060247Z 0603/0624 21008KT P6SM SKC
     FM060600 21006KT 5SM BR SKC
      TEMPO 0609/0613 3SM BR BKN006
     FM061400 21008KT P6SM SCT015
     FM061600 22012G18KT P6SM SCT025 BKN035
     FM061800 21015G23KT P6SM VCTS SCT025CB BKN035=



000
FTUS44 KMEG 060247 AAA
TAFMEM
TAF AMD
KMEM 060247Z 0603/0624 21005KT P6SM SKC
      TEMPO 0610/0613 4SM BR BKN006
     FM061400 22007KT P6SM SCT015
     FM061600 22010KT P6SM SCT025 BKN035
     FM061800 22010KT P6SM VCTS SCT025CB BKN035=



000
FTUS44 KMEG 060247 AAB
TAFJBR
TAF AMD
KJBR 060247Z 0603/0624 21008KT P6SM SKC
     FM060600 21006KT 5SM BR SKC
      TEMPO 0609/0613 3SM BR BKN006
     FM061400 21008KT P6SM SCT015
     FM061600 22012G18KT P6SM SCT025 BKN035
     FM061800 21015G23KT P6SM VCTS SCT025CB BKN035=



000
FTUS44 KMEG 060111 AAA
TAFJBR
TAF AMD
KJBR 060111Z 0601/0624 19005KT P6SM SCT020 SCT040 SCT250
      TEMPO 0601/0603 BKN020 BKN040
     FM060600 21003KT 5SM BR SCT250
      TEMPO 0609/0613 3SM BR BKN006
     FM061400 21008KT P6SM SCT015
     FM061600 22012G18KT P6SM SCT025 BKN035
     FM061800 21015G23KT P6SM VCTS SCT025CB BKN035=



000
FTUS44 KMEG 060111 AAA
TAFJBR
TAF AMD
KJBR 060111Z 0601/0624 19005KT P6SM SCT020 SCT040 SCT250
      TEMPO 0601/0603 BKN020 BKN040
     FM060600 21003KT 5SM BR SCT250
      TEMPO 0609/0613 3SM BR BKN006
     FM061400 21008KT P6SM SCT015
     FM061600 22012G18KT P6SM SCT025 BKN035
     FM061800 21015G23KT P6SM VCTS SCT025CB BKN035=



000
FTUS44 KMEG 052320
TAFJBR
TAF
KJBR 052320Z 0600/0624 20004KT P6SM SCT040 SCT250
     FM060600 21003KT 5SM BR SCT250
      TEMPO 0609/0613 3SM BR BKN006
     FM061400 21008KT P6SM SCT015
     FM061600 22012G18KT P6SM SCT025 BKN035
     FM061800 21015G23KT P6SM VCTS SCT025CB BKN035=



000
FTUS44 KMEG 052320
TAFMEM
TAF
KMEM 052320Z 0600/0624 21005KT P6SM SCT040 SCT250
      TEMPO 0610/0613 4SM BR BKN006
     FM061400 22007KT P6SM SCT015
     FM061600 22010KT P6SM SCT025 BKN035
     FM061800 22010KT P6SM VCTS SCT025CB BKN035=



000
FTUS44 KMEG 052320
TAFMKL
TAF
KMKL 052320Z 0600/0624 20006KT P6SM VCTS BKN035CB
     FM060200 00000KT P6SM SCT040 SCT250
     FM060500 00000KT 5SM BR SCT250
      TEMPO 0605/0609 2SM BR
     FM060900 00000KT 2SM BR SCT003
      TEMPO 0609/0613 1/2SM FG VV002
     FM061400 22006KT P6SM SCT015
     FM061600 23008KT P6SM SCT025 BKN035
     FM061800 23008KT P6SM VCTS SCT025CB BKN035=



000
FTUS44 KMEG 052320
TAFTUP
TAF
KTUP 052320Z 0600/0624 23004KT P6SM SCT040 SCT250
     FM060500 00000KT 4SM BR SCT003
      TEMPO 0605/0609 1SM BR BKN003
     FM060900 00000KT 1SM BR BKN003
      TEMPO 0609/0613 1/4SM FG VV002
     FM061300 21005KT 2SM BR BKN005
     FM061400 23005KT P6SM SCT012
     FM061600 24008KT P6SM SCT025 BKN035
     FM061800 24008KT P6SM VCTS SCT025CB BKN035=



000
FTUS44 KMEG 052056 AAA
TAFMEM
TAF AMD
KMEM 052056Z 0521/0618 22008KT P6SM SCT025 BKN035
     FM060000 20005KT P6SM SCT025
      TEMPO 0611/0613 6SM BR BKN006
     FM061400 20005KT P6SM SCT015
     FM061600 22008KT P6SM SCT025 BKN035=



000
FTUS44 KMEG 052056 AAA
TAFMEM
TAF AMD
KMEM 052056Z 0521/0618 22008KT P6SM SCT025 BKN035
     FM060000 20005KT P6SM SCT025
      TEMPO 0611/0613 6SM BR BKN006
     FM061400 20005KT P6SM SCT015
     FM061600 22008KT P6SM SCT025 BKN035=



000
FTUS44 KMEG 052028 AAA
TAFJBR
TAF AMD
KJBR 052028Z 0520/0618 20010KT P6SM SCT025 BKN040
     FM060000 20003KT P6SM SCT040 SCT250
      TEMPO 0611/0613 3SM BR BKN006
     FM061400 21005KT P6SM SCT015
     FM061600 22010KT P6SM SCT025 BKN035=



000
FTUS44 KMEG 052027 AAA
TAFTUP
TAF AMD
KTUP 052027Z 0520/0618 24006KT P6SM SCT020 BKN040
     FM060000 21004KT P6SM SCT040 SCT250
     FM060600 21002KT 5SM BR SCT015 SCT250
      TEMPO 0610/0614 1SM BR OVC004
     FM061400 20005KT P6SM SCT015
     FM061600 22007KT P6SM SCT025 BKN035=



000
FTUS44 KMEG 052026 AAA
TAFMKL
TAF AMD
KMKL 052026Z 0520/0618 21008KT P6SM VCSH SCT025 BKN040
     FM060000 00000KT P6SM SCT040 SCT250
      TEMPO 0611/0613 1SM BR BKN004
     FM061400 20005KT P6SM SCT015
     FM061600 22007KT P6SM SCT025 BKN035=



000
FTUS44 KMEG 051730
TAFTUP
TAF
KTUP 051730Z 0518/0618 23006KT P6SM VCTS BKN040CB
     FM060000 21004KT P6SM SCT040 SCT250
     FM060600 21002KT 5SM BR SCT015 SCT250
      TEMPO 0610/0614 1SM BR OVC004
     FM061400 20005KT P6SM SCT015
     FM061600 22007KT P6SM SCT025 BKN035=



000
FTUS44 KMEG 051730
TAFMEM
TAF
KMEM 051730Z 0518/0618 20008KT P6SM VCTS SCT025 BKN040CB
     FM060000 19005KT P6SM SCT040 SCT250
      TEMPO 0611/0613 6SM BR BKN006
     FM061400 20005KT P6SM SCT015
     FM061600 22008KT P6SM SCT025 BKN035=



000
FTUS44 KMEG 051730
TAFMKL
TAF
KMKL 051730Z 0518/0618 20005KT P6SM VCTS SCT025 BKN035CB
     FM060000 00000KT P6SM SCT040 SCT250
      TEMPO 0611/0613 1SM BR BKN004
     FM061400 20005KT P6SM SCT015
     FM061600 22007KT P6SM SCT025 BKN035=



000
FTUS44 KMEG 051730
TAFJBR
TAF
KJBR 051730Z 0518/0618 20006KT P6SM VCTS SCT025 BKN040CB
     FM060000 20003KT P6SM SCT040 SCT250
      TEMPO 0611/0613 3SM BR BKN006
     FM061400 21005KT P6SM SCT015
     FM061600 22010KT P6SM SCT025 BKN035=



000
FTUS44 KMEG 051730
TAFTUP
TAF
KTUP 051730Z 0518/0618 23006KT P6SM VCTS BKN040CB
     FM060000 21004KT P6SM SCT040 SCT250
     FM060600 21002KT 5SM BR SCT015 SCT250
      TEMPO 0610/0614 1SM BR OVC004
     FM061400 20005KT P6SM SCT015
     FM061600 22007KT P6SM SCT025 BKN035=



000
FTUS44 KMEG 051730
TAFMEM
TAF
KMEM 051730Z 0518/0618 20008KT P6SM VCTS SCT025 BKN040CB
     FM060000 19005KT P6SM SCT040 SCT250
      TEMPO 0611/0613 6SM BR BKN006
     FM061400 20005KT P6SM SCT015
     FM061600 22008KT P6SM SCT025 BKN035=



000
FTUS44 KMEG 051730
TAFMKL
TAF
KMKL 051730Z 0518/0618 20005KT P6SM VCTS SCT025 BKN035CB
     FM060000 00000KT P6SM SCT040 SCT250
      TEMPO 0611/0613 1SM BR BKN004
     FM061400 20005KT P6SM SCT015
     FM061600 22007KT P6SM SCT025 BKN035=



000
FTUS44 KMEG 051730
TAFJBR
TAF
KJBR 051730Z 0518/0618 20006KT P6SM VCTS SCT025 BKN040CB
     FM060000 20003KT P6SM SCT040 SCT250
      TEMPO 0611/0613 3SM BR BKN006
     FM061400 21005KT P6SM SCT015
     FM061600 22010KT P6SM SCT025 BKN035=



000
FTUS44 KMEG 051506 AAB
TAFMEM
TAF AMD
KMEM 051506Z 0515/0612 19006KT P6SM SCT015 BKN030
     FM051700 23008KT P6SM VCTS SCT025 BKN040CB
     FM060000 19005KT P6SM SCT040 SCT250
     FM060600 20004KT P6SM SCT040=



000
FTUS44 KMEG 051506 AAB
TAFMEM
TAF AMD
KMEM 051506Z 0515/0612 19006KT P6SM SCT015 BKN030
     FM051700 23008KT P6SM VCTS SCT025 BKN040CB
     FM060000 19005KT P6SM SCT040 SCT250
     FM060600 20004KT P6SM SCT040=



000
FTUS44 KMEG 051209 AAA
TAFMEM
TAF AMD
KMEM 051209Z 0512/0612 22003KT 5SM BR SCT040 SCT250
     FM051600 23005KT P6SM SCT020 BKN050
     FM051900 23008KT P6SM VCTS BKN040CB
     FM060000 19005KT P6SM SCT040 SCT250
     FM060600 20004KT P6SM SCT040=



000
FTUS44 KMEG 051209 AAA
TAFMEM
TAF AMD
KMEM 051209Z 0512/0612 22003KT 5SM BR SCT040 SCT250
     FM051600 23005KT P6SM SCT020 BKN050
     FM051900 23008KT P6SM VCTS BKN040CB
     FM060000 19005KT P6SM SCT040 SCT250
     FM060600 20004KT P6SM SCT040=



000
FTUS44 KMEG 051120
TAFTUP
TAF
KTUP 051120Z 0512/0612 24004KT 4SM BR BKN010
      TEMPO 0512/0514 1SM BR BKN002
     FM051600 24006KT P6SM BKN020 OVC035
     FM051900 23006KT P6SM VCTS BKN040CB
     FM060000 21004KT P6SM SCT040 SCT250
     FM060600 21002KT 4SM BR SCT025 BKN100
     FM061000 21002KT 2SM BR OVC005=



000
FTUS44 KMEG 051120
TAFJBR
TAF
KJBR 051120Z 0512/0612 VRB02KT P6SM BKN030
      TEMPO 0512/0514 4SM BR
     FM051600 16004KT P6SM SCT030
     FM051900 19008KT P6SM VCTS BKN040CB BKN100
     FM060000 20004KT P6SM SCT040 SCT250
     FM060900 21003KT 4SM BR SCT100=



000
FTUS44 KMEG 051120
TAFMKL
TAF
KMKL 051120Z 0512/0612 24003KT P6SM BKN012 OVC020
      TEMPO 0512/0515 4SM BR OVC007
     FM051600 24005KT P6SM SCT020 OVC050
     FM051900 23006KT P6SM VCTS BKN040CB
     FM060000 19003KT P6SM SCT040 SCT250
     FM060700 20002KT 4SM BR SCT020 OVC050=



000
FTUS44 KMEG 051120
TAFMEM
TAF
KMEM 051120Z 0512/0612 22003KT 5SM BR SCT040 SCT250
      TEMPO 0512/0513 2SM BR
     FM051600 23005KT P6SM SCT020 BKN050
     FM051900 23008KT P6SM VCTS BKN040CB
     FM060000 19005KT P6SM SCT040 SCT250
     FM060600 20004KT P6SM SCT040=



000
FTUS44 KMEG 050900 AAA
TAFMEM
TAF AMD
KMEM 050900Z 0509/0606 18003KT 5SM BR BKN020
      TEMPO 0510/0513 2SM BR OVC007
     FM051600 24007KT P6SM SCT020 BKN035
     FM051900 23008KT P6SM VCTS BKN040CB
     FM060000 20006KT P6SM SCT040 SCT250=



000
FTUS44 KMEG 050523
TAFJBR
TAF
KJBR 050523Z 0506/0606 VRB03KT P6SM SCT025 BKN150
      TEMPO 0506/0507 BKN025 BKN150
     FM050700 VRB02KT 5SM BR BKN015
      TEMPO 0509/0513 2SM BR OVC007
     FM051600 16004KT P6SM SCT020 BKN035
     FM051900 19008KT P6SM BKN040
     FM060000 20004KT P6SM SCT040 SCT250=



000
FTUS44 KMEG 050523
TAFMEM
TAF
KMEM 050523Z 0506/0606 20003KT P6SM SCT025 BKN100
      TEMPO 0506/0507 BKN025 BKN100
     FM050700 20003KT 5SM BR BKN015
      TEMPO 0509/0513 2SM BR OVC007
     FM051600 24007KT P6SM SCT020 BKN035
     FM051900 23008KT P6SM VCTS BKN040CB
     FM060000 20006KT P6SM SCT040 SCT250=



000
FTUS44 KMEG 050523
TAFMKL
TAF
KMKL 050523Z 0506/0606 VRB02KT P6SM VCSH SCT025 OVC100
      TEMPO 0506/0507 BKN025 OVC100
     FM050700 VRB02KT 5SM BR BKN012 OVC020
      TEMPO 0509/0513 2SM BR OVC007
     FM051600 23006KT P6SM BKN020 OVC035
     FM051900 23006KT P6SM VCTS BKN040CB
     FM060000 19003KT P6SM SCT040 SCT250=



000
FTUS44 KMEG 050523
TAFTUP
TAF
KTUP 050523Z 0506/0606 VRB02KT 4SM BR SCT002 SCT030
      TEMPO 0506/0507 2SM BR BKN002 BKN030
     FM050700 VRB02KT 2SM BR OVC005
      TEMPO 0507/0511 1/2SM FG VV002
     FM051400 24004KT 4SM BR BKN010
     FM051600 24006KT P6SM BKN020 OVC035
     FM051900 24006KT P6SM VCTS BKN040CB
     FM060000 21004KT P6SM SCT040 SCT250=



000
FTUS44 KMEG 050523
TAFMKL
TAF
KMKL 050523Z 0506/0606 VRB02KT P6SM VCSH SCT025 OVC100
      TEMPO 0506/0507 BKN025 OVC100
     FM050700 VRB02KT 5SM BR BKN012 OVC020
      TEMPO 0509/0513 2SM BR OVC007
     FM051600 23006KT P6SM BKN020 OVC035
     FM051900 23006KT P6SM VCTS BKN040CB
     FM060000 19003KT P6SM SCT040 SCT250=



000
FTUS44 KMEG 050523
TAFTUP
TAF
KTUP 050523Z 0506/0606 VRB02KT 4SM BR SCT002 SCT030
      TEMPO 0506/0507 2SM BR BKN002 BKN030
     FM050700 VRB02KT 2SM BR OVC005
      TEMPO 0507/0511 1/2SM FG VV002
     FM051400 24004KT 4SM BR BKN010
     FM051600 24006KT P6SM BKN020 OVC035
     FM051900 24006KT P6SM VCTS BKN040CB
     FM060000 21004KT P6SM SCT040 SCT250=



000
FTUS44 KMEG 050523
TAFJBR
TAF
KJBR 050523Z 0506/0606 VRB03KT P6SM SCT025 BKN150
      TEMPO 0506/0507 BKN025 BKN150
     FM050700 VRB02KT 5SM BR BKN015
      TEMPO 0509/0513 2SM BR OVC007
     FM051600 16004KT P6SM SCT020 BKN035
     FM051900 19008KT P6SM BKN040
     FM060000 20004KT P6SM SCT040 SCT250=



000
FTUS44 KMEG 050523
TAFMEM
TAF
KMEM 050523Z 0506/0606 20003KT P6SM SCT025 BKN100
      TEMPO 0506/0507 BKN025 BKN100
     FM050700 20003KT 5SM BR BKN015
      TEMPO 0509/0513 2SM BR OVC007
     FM051600 24007KT P6SM SCT020 BKN035
     FM051900 23008KT P6SM VCTS BKN040CB
     FM060000 20006KT P6SM SCT040 SCT250=



000
FTUS44 KMEG 050328 AAB
TAFMKL
TAF AMD
KMKL 050328Z 0503/0524 22004KT P6SM VCTS SCT025CB OVC060
      TEMPO 0503/0506 5SM -SHRA BKN025 OVC035
     FM050600 VRB02KT P6SM SCT025 OVC150
     FM050700 VRB02KT 5SM BR BKN012 OVC020
      TEMPO 0509/0513 2SM BR OVC007
     FM051600 23006KT P6SM BKN020 OVC035
     FM051900 23006KT P6SM VCTS BKN040CB=



000
FTUS44 KMEG 050328 AAB
TAFMKL
TAF AMD
KMKL 050328Z 0503/0524 22004KT P6SM VCTS SCT025CB OVC060
      TEMPO 0503/0506 5SM -SHRA BKN025 OVC035
     FM050600 VRB02KT P6SM SCT025 OVC150
     FM050700 VRB02KT 5SM BR BKN012 OVC020
      TEMPO 0509/0513 2SM BR OVC007
     FM051600 23006KT P6SM BKN020 OVC035
     FM051900 23006KT P6SM VCTS BKN040CB=



000
FTUS44 KMEG 050322 AAA
TAFTUP
TAF AMD
KTUP 050322Z 0503/0524 VRB02KT 4SM BR SCT002 SCT030
      TEMPO 0503/0507 2SM BR BKN002 BKN030
     FM050700 VRB02KT 2SM BR OVC005
      TEMPO 0507/0511 1/2SM FG VV002
     FM051400 24004KT 4SM BR BKN010
     FM051600 24006KT P6SM BKN020 OVC035
     FM051900 24006KT P6SM VCTS BKN040CB=



000
FTUS44 KMEG 050322 AAA
TAFTUP
TAF AMD
KTUP 050322Z 0503/0524 VRB02KT 4SM BR SCT002 SCT030
      TEMPO 0503/0507 2SM BR BKN002 BKN030
     FM050700 VRB02KT 2SM BR OVC005
      TEMPO 0507/0511 1/2SM FG VV002
     FM051400 24004KT 4SM BR BKN010
     FM051600 24006KT P6SM BKN020 OVC035
     FM051900 24006KT P6SM VCTS BKN040CB=



000
FTUS44 KMEG 050311 AAB
TAFMEM
TAF AMD
KMEM 050311Z 0503/0524 20004KT P6SM VCSH SCT025 BKN040 BKN150
      TEMPO 0503/0504 BKN025 OVC035
     FM050400 20004KT P6SM SCT025 BKN150
     FM050600 20003KT 5SM BR BKN015
      TEMPO 0509/0513 2SM BR OVC007
     FM051600 24007KT P6SM SCT020 BKN035
     FM051900 23008KT P6SM VCTS BKN040CB=



000
FTUS44 KMEG 050221 AAA
TAFMKL
TAF AMD
KMKL 050221Z 0502/0524 22004KT P6SM VCTS SCT025CB OVC060
      TEMPO 0502/0504 5SM -SHRA BKN025 OVC035
     FM050400 VRB02KT P6SM SCT025 OVC150
     FM050600 VRB02KT 5SM BR BKN012 OVC020
      TEMPO 0509/0513 2SM BR OVC007
     FM051600 23006KT P6SM BKN020 OVC035
     FM051900 23006KT P6SM VCTS BKN040CB=



000
FTUS44 KMEG 050220 AAA
TAFMEM
TAF AMD
KMEM 050220Z 0502/0524 20004KT P6SM VCSH SCT025 BKN040 BKN150
      TEMPO 0502/0504 BKN025 OVC035
     FM050400 20004KT P6SM SCT025 BKN150
     FM050600 20003KT 5SM BR BKN015
      TEMPO 0509/0513 2SM BR OVC007
     FM051600 24007KT P6SM SCT020 BKN035
     FM051900 23008KT P6SM VCTS BKN040CB=



000
FTUS44 KMEG 050105 AAA
TAFJBR
TAF AMD
KJBR 050105Z 0501/0524 VRB03KT P6SM SCT018 BKN035 OVC150
      TEMPO 0501/0502 5SM -SHRA BKN018 OVC035
     FM050200 VRB02KT P6SM SCT030 BKN150
     FM050600 VRB02KT 5SM BR BKN015
      TEMPO 0509/0513 2SM BR OVC007
     FM051600 16004KT P6SM SCT020 BKN035
     FM051900 19008KT P6SM BKN040=



000
FTUS44 KMEG 050105 AAA
TAFJBR
TAF AMD
KJBR 050105Z 0501/0524 VRB03KT P6SM SCT018 BKN035 OVC150
      TEMPO 0501/0502 5SM -SHRA BKN018 OVC035
     FM050200 VRB02KT P6SM SCT030 BKN150
     FM050600 VRB02KT 5SM BR BKN015
      TEMPO 0509/0513 2SM BR OVC007
     FM051600 16004KT P6SM SCT020 BKN035
     FM051900 19008KT P6SM BKN040=



000
FTUS44 KMEG 042337
TAFJBR
TAF
KJBR 042337Z 0500/0524 VRB03KT P6SM VCTS SCT020CB BKN035 OVC150
      TEMPO 0500/0501 BKN020CB OVC035
     FM050100 VRB02KT P6SM SCT030 BKN150
     FM050600 VRB02KT 5SM BR BKN015
      TEMPO 0509/0513 2SM BR OVC007
     FM051600 16004KT P6SM SCT020 BKN035
     FM051900 19008KT P6SM BKN040=



000
FTUS44 KMEG 042337
TAFTUP
TAF
KTUP 042337Z 0500/0524 VRB02KT P6SM VCSH SCT028 OVC100
      TEMPO 0500/0502 BKN028 OVC100
     FM050200 VRB02KT P6SM SCT030 OVC100
     FM050600 VRB02KT 5SM BR BKN012 OVC020
      TEMPO 0509/0513 2SM BR OVC007
     FM051600 24006KT P6SM BKN020 OVC035
     FM051900 24006KT P6SM VCTS BKN040CB=



000
FTUS44 KMEG 042337
TAFMKL
TAF
KMKL 042337Z 0500/0524 VRB02KT P6SM VCTS SCT015CB OVC035
      TEMPO 0500/0502 BKN015CB OVC035
     FM050200 VRB02KT P6SM SCT020 OVC150
      TEMPO 0502/0504 BKN020 OVC150
     FM050600 VRB02KT 5SM BR BKN012 OVC020
      TEMPO 0509/0513 2SM BR OVC007
     FM051600 23006KT P6SM BKN020 OVC035
     FM051900 23006KT P6SM VCTS BKN040CB=



000
FTUS44 KMEG 042337
TAFMEM
TAF
KMEM 042337Z 0500/0524 21004KT P6SM VCSH SCT020 BKN035 BKN150
      TEMPO 0500/0502 BKN020 OVC035
     FM050200 20004KT P6SM SCT020 BKN150
     FM050600 20003KT 5SM BR BKN015
      TEMPO 0509/0513 2SM BR OVC007
     FM051600 24007KT P6SM SCT020 BKN035
     FM051900 23008KT P6SM VCTS BKN040CB=



000
FTUS44 KMEG 042225 AAC
TAFMEM
TAF AMD
KMEM 042225Z 0422/0518 23004KT P6SM VCSH SCT020 BKN035 BKN150
      TEMPO 0500/0502 BKN020 OVC035
     FM050200 20004KT P6SM SCT020 BKN150
     FM050600 20003KT 5SM BR BKN015
      TEMPO 0509/0513 2SM BR OVC007
     FM051600 24007KT P6SM SCT020 BKN035=



000
FTUS44 KMEG 042225 AAC
TAFMEM
TAF AMD
KMEM 042225Z 0422/0518 23004KT P6SM VCSH SCT020 BKN035 BKN150
      TEMPO 0500/0502 BKN020 OVC035
     FM050200 20004KT P6SM SCT020 BKN150
     FM050600 20003KT 5SM BR BKN015
      TEMPO 0509/0513 2SM BR OVC007
     FM051600 24007KT P6SM SCT020 BKN035=



000
FTUS44 KMEG 042147 AAB
TAFTUP
TAF AMD
KTUP 042147Z 0422/0518 VRB03KT P6SM VCTS BKN025CB OVC100
      TEMPO 0422/0424 4SM -SHRA OVC020
     FM050000 VRB02KT P6SM VCSH BKN030 OVC100
     FM050200 VRB02KT P6SM SCT030 OVC100
     FM050600 VRB02KT 5SM BR BKN012 OVC020
      TEMPO 0509/0513 2SM BR OVC007
     FM051600 24006KT P6SM BKN020 OVC035=



000
FTUS44 KMEG 042141 AAB
TAFJBR
TAF AMD
KJBR 042141Z 0422/0518 VRB03KT P6SM VCTS BKN025CB BKN150
     FM050000 VRB02KT P6SM SCT030 BKN150
     FM050600 VRB02KT 5SM BR BKN015
      TEMPO 0509/0513 2SM BR OVC007
     FM051600 16004KT P6SM SCT020 BKN035=



000
FTUS44 KMEG 042134 AAA
TAFMKL
TAF AMD
KMKL 042134Z 0422/0518 24006KT P6SM VCTS BKN015CB OVC120
     FM050000 VRB02KT P6SM VCSH BKN020 OVC120
     FM050200 VRB02KT P6SM SCT020 OVC150
      TEMPO 0502/0504 BKN020 OVC150
     FM050600 VRB02KT 5SM BR BKN012 OVC020
      TEMPO 0509/0513 2SM BR OVC007
     FM051600 23006KT P6SM BKN020 OVC035=



000
FTUS44 KMEG 042126 AAB
TAFMEM
TAF AMD
KMEM 042126Z 0421/0518 23006KT P6SM BKN018 OVC150
     FM050000 20004KT P6SM SCT020 BKN150
      TEMPO 0500/0502 BKN020 BKN150
     FM050600 20003KT 5SM BR BKN015
      TEMPO 0509/0513 2SM BR OVC007
     FM051600 24007KT P6SM SCT020 BKN035=



000
FTUS44 KMEG 042126 AAB
TAFMEM
TAF AMD
KMEM 042126Z 0421/0518 23006KT P6SM BKN018 OVC150
     FM050000 20004KT P6SM SCT020 BKN150
      TEMPO 0500/0502 BKN020 BKN150
     FM050600 20003KT 5SM BR BKN015
      TEMPO 0509/0513 2SM BR OVC007
     FM051600 24007KT P6SM SCT020 BKN035=



000
FTUS44 KMEG 042055 AAA
TAFMEM
TAF AMD
KMEM 042055Z 0421/0518 20006KT P6SM VCTS BKN015CB BKN070 OVC100
     FM050000 20004KT P6SM VCSH BKN030 BKN100
     FM050500 20003KT 5SM BR SCT012 BKN020
     FM051600 21007KT P6SM SCT020 BKN035=



000
FTUS44 KMEG 042055 AAA
TAFMEM
TAF AMD
KMEM 042055Z 0421/0518 20006KT P6SM VCTS BKN015CB BKN070 OVC100
     FM050000 20004KT P6SM VCSH BKN030 BKN100
     FM050500 20003KT 5SM BR SCT012 BKN020
     FM051600 21007KT P6SM SCT020 BKN035=



000
FTUS44 KMEG 042051 AAA
TAFTUP
TAF AMD
KTUP 042051Z 0421/0518 VRB03KT P6SM -SHRA VCTS BKN025CB OVC100
      TEMPO 0421/0423 1SM +TSRA BR BKN015CB
     FM050000 VRB02KT P6SM VCSH BKN030 OVC100
     FM050600 VRB02KT 5SM BR BKN012 OVC020
     FM051600 22006KT P6SM BKN020 OVC035=



000
FTUS44 KMEG 041906 AAA
TAFJBR
TAF AMD
KJBR 041906Z 0419/0518 08004KT P6SM VCTS SCT015 BKN035CB
     FM050100 VRB02KT P6SM SCT030 BKN150
     FM050400 VRB02KT 5SM BR SCT012 BKN025
     FM051600 19007KT P6SM SCT025 BKN040=



000
FTUS44 KMEG 041730
TAFJBR
TAF
KJBR 041730Z 0418/0518 08004KT P6SM VCTS SCT015 BKN025CB
     FM050100 VRB02KT P6SM SCT030 BKN150
     FM050600 VRB02KT 5SM BR SCT012 BKN025
     FM051600 19007KT P6SM SCT025 BKN040=



000
FTUS44 KMEG 041730
TAFTUP
TAF
KTUP 041730Z 0418/0518 25009KT P6SM -SHRA VCTS BKN030CB OVC100
     FM050200 VRB02KT P6SM VCSH BKN030 OVC100
     FM050600 VRB02KT 5SM BR BKN012 OVC020
     FM051600 22006KT P6SM BKN020 OVC035=



000
FTUS44 KMEG 041730
TAFMKL
TAF
KMKL 041730Z 0418/0518 23006KT P6SM -SHRA VCTS SCT015 BKN025CB
      OVC040
      TEMPO 0418/0422 3SM TSRA BKN015CB
     FM050200 VRB02KT P6SM VCSH BKN030 OVC100
     FM050600 VRB02KT 5SM BR BKN012 OVC020
     FM051600 21007KT P6SM BKN020 OVC035=



000
FTUS44 KMEG 041730
TAFMEM
TAF
KMEM 041730Z 0418/0518 22006KT P6SM -SHRA VCTS SCT015 BKN025CB
      OVC040
      TEMPO 0418/0422 3SM TSRA BKN015CB
     FM050000 21004KT P6SM VCSH BKN030 OVC100
     FM050500 20003KT 5SM BR SCT012 BKN020
     FM051600 21007KT P6SM SCT020 BKN035=



000
FTUS44 KMEG 041458 AAB
TAFMEM
TAF AMD
KMEM 041458Z 0415/0512 22007KT P6SM VCSH BKN020 OVC100
      TEMPO 0415/0417 -SHRA BKN012
     FM041900 23008KT P6SM VCTS BKN030CB OVC100
     FM051000 21003KT P6SM SCT030 OVC100=



000
FTUS44 KMEG 041352 AAA
TAFMKL
TAF AMD
KMKL 041352Z 0414/0512 22003KT P6SM BKN008 OVC020
      TEMPO 0414/0416 OVC004
     FM041600 23007KT P6SM VCSH BKN020 OVC100
     FM042000 23007KT P6SM VCTS SCT030CB OVC100
     FM050300 18003KT P6SM VCSH SCT030 OVC100=



000
FTUS44 KMEG 041348 AAA
TAFJBR
TAF AMD
KJBR 041348Z 0414/0512 00000KT 3SM BR BKN005 OVC020
      TEMPO 0414/0416 2SM BR OVC002
     FM041600 12005KT P6SM BKN020 OVC150
     FM041800 18007KT P6SM VCTS SCT030CB OVC150
     FM050300 19003KT P6SM SCT030 OVC150
     FM050800 22003KT 4SM BR SKC=



000
FTUS44 KMEG 041251 AAA
TAFMEM
TAF AMD
KMEM 041251Z 0413/0512 22005KT P6SM VCSH BKN010 OVC020
      TEMPO 0413/0415 BKN007 OVC010
     FM041600 23008KT P6SM VCSH BKN020 OVC100
     FM041800 23008KT P6SM VCTS BKN030CB OVC100
     FM051000 21003KT P6SM SCT030 OVC100=



000
FTUS44 KMEG 041251 AAA
TAFMEM
TAF AMD
KMEM 041251Z 0413/0512 22005KT P6SM VCSH BKN010 OVC020
      TEMPO 0413/0415 BKN007 OVC010
     FM041600 23008KT P6SM VCSH BKN020 OVC100
     FM041800 23008KT P6SM VCTS BKN030CB OVC100
     FM051000 21003KT P6SM SCT030 OVC100=



000
FTUS44 KMEG 041127
TAFMEM
TAF
KMEM 041127Z 0412/0512 22005KT P6SM VCSH BKN010 OVC020
     FM041600 23008KT P6SM VCSH BKN020 OVC100
     FM041800 23008KT P6SM VCTS BKN030CB OVC100
     FM051000 21003KT P6SM SCT030 OVC100=



000
FTUS44 KMEG 041127
TAFJBR
TAF
KJBR 041127Z 0412/0512 VRB03KT 3SM BR BKN009 OVC020
      TEMPO 0412/0414 1/2SM FG BKN005
     FM041600 12005KT P6SM BKN020 OVC150
     FM041800 18007KT P6SM VCTS SCT030CB OVC150
     FM050300 19003KT P6SM SCT030 OVC150=



000
FTUS44 KMEG 041127
TAFJBR
TAF

FM050800
 22003KT 4SM BR SKC=



000
FTUS44 KMEG 041127
TAFTUP
TAF
KTUP 041127Z 0412/0512 24008KT 5SM RA BR BKN010 BKN050 OVC120
     FM041600 25009KT P6SM VCSH BKN030 OVC100
     FM041800 25009KT P6SM VCTS SCT030CB OVC100
     FM050600 19006KT P6SM VCSH SCT030 OVC100=



000
FTUS44 KMEG 041127
TAFMKL
TAF
KMKL 041127Z 0412/0512 22003KT P6SM BKN008 OVC020
     FM041600 23007KT P6SM VCSH BKN020 OVC100
     FM042000 23007KT P6SM VCTS SCT030CB OVC100
     FM050300 18003KT P6SM VCSH SCT030 OVC100=



000
FTUS44 KMEG 041127
TAFTUP
TAF
KTUP 041127Z 0412/0512 24008KT 5SM RA BR BKN010 BKN050 OVC120
     FM041600 25009KT P6SM VCSH BKN030 OVC100
     FM041800 25009KT P6SM VCTS SCT030CB OVC100
     FM050600 19006KT P6SM VCSH SCT030 OVC100=



000
FTUS44 KMEG 041127
TAFMEM
TAF
KMEM 041127Z 0412/0512 22005KT P6SM VCSH BKN010 OVC020
     FM041600 23008KT P6SM VCSH BKN020 OVC100
     FM041800 23008KT P6SM VCTS BKN030CB OVC100
     FM051000 21003KT P6SM SCT030 OVC100=



000
FTUS44 KMEG 041127
TAFMKL
TAF
KMKL 041127Z 0412/0512 22003KT P6SM BKN008 OVC020
     FM041600 23007KT P6SM VCSH BKN020 OVC100
     FM042000 23007KT P6SM VCTS SCT030CB OVC100
     FM050300 18003KT P6SM VCSH SCT030 OVC100=



000
FTUS44 KMEG 041127
TAFJBR
TAF
KJBR 041127Z 0412/0512 VRB03KT 3SM BR BKN009 OVC020
      TEMPO 0412/0414 1/2SM FG BKN005
     FM041600 12005KT P6SM BKN020 OVC150
     FM041800 18007KT P6SM VCTS SCT030CB OVC150
     FM050300 19003KT P6SM SCT030 OVC150=



000
FTUS44 KMEG 041127
TAFJBR
TAF

FM050800
 22003KT 4SM BR SKC=



000
FTUS44 KMEG 040903 AAA
TAFMEM
TAF AMD
KMEM 040903Z 0409/0506 22005KT 4SM BR VCSH OVC010
      TEMPO 0412/0413 2SM BR OVC007
     FM041400 23007KT 6SM BR VCSH BKN009 OVC020
     FM041600 23008KT P6SM VCSH BKN020 OVC100
     FM041800 23008KT P6SM VCTS SCT030CB OVC100
     FM050300 19005KT P6SM SCT030 OVC100=



000
FTUS44 KMEG 040521
TAFMKL
TAF
KMKL 040521Z 0406/0506 21005KT P6SM SCT012 OVC050
      TEMPO 0406/0407 BKN012 OVC050
     FM040700 21004KT 2SM BR OVC005
     FM041400 22005KT 5SM BR BKN008 OVC020
     FM041600 23007KT P6SM VCSH BKN015 OVC100
     FM041800 23007KT P6SM VCTS SCT030CB OVC100
     FM050300 18003KT P6SM SCT030 OVC100=



000
FTUS44 KMEG 040521
TAFTUP
TAF
KTUP 040521Z 0406/0506 23005KT 6SM BR VCSH SCT006 OVC018
     FM040900 22004KT 3SM -SHRA BR VCTS BKN007 OVC018CB
      TEMPO 0409/0413 2SM TSRA OVC006CB
     FM041400 23007KT 6SM BR VCSH BKN009 OVC020
     FM041600 25009KT P6SM VCSH BKN020 OVC100
     FM041800 25009KT P6SM VCTS SCT030CB OVC100
     FM050300 19006KT P6SM SCT030 OVC100=



000
FTUS44 KMEG 040521
TAFJBR
TAF
KJBR 040521Z 0406/0506 VRB03KT P6SM SCT012 OVC050
      TEMPO 0406/0407 BKN012 OVC050
     FM040700 VRB03KT 3SM BR OVC006
     FM041400 VRB03KT 6SM BR BKN009 OVC020
     FM041600 12005KT P6SM BKN020 OVC150
     FM041800 18007KT P6SM VCTS SCT030CB OVC150
     FM050300 19003KT P6SM SCT030 OVC150=



000
FTUS44 KMEG 040521
TAFMEM
TAF
KMEM 040521Z 0406/0506 22008KT P6SM SCT012 OVC050
      TEMPO 0406/0407 BKN012 OVC050
     FM040700 22006KT 4SM BR VCSH OVC007
     FM041400 23007KT 6SM BR VCSH BKN009 OVC020
     FM041600 23008KT P6SM VCSH BKN020 OVC100
     FM041800 23008KT P6SM VCTS SCT030CB OVC100
     FM050300 19005KT P6SM SCT030 OVC100=



000
FTUS44 KMEG 040304 AAC
TAFMEM
TAF AMD
KMEM 040304Z 0403/0424 23008KT P6SM SCT012 OVC050
      TEMPO 0403/0406 BKN012 OVC050
     FM040600 22005KT 4SM BR VCSH OVC007
     FM041400 23007KT 6SM BR VCSH BKN009 OVC020
     FM041600 23008KT P6SM VCSH BKN020 OVC100
     FM041800 23008KT P6SM VCTS SCT030CB OVC100=



000
FTUS44 KMEG 040303 AAB
TAFMEM
TAF AMD
KMEM 040303Z 0403/0424 23007KT P6SM SCT015 OVC050
      TEMPO 0403/0406 BKN015 OVC050
     FM040600 22005KT 4SM BR VCSH OVC007
     FM041400 23007KT 6SM BR VCSH BKN009 OVC020
     FM041600 23008KT P6SM VCSH BKN020 OVC100
     FM041800 23008KT P6SM VCTS SCT030CB OVC100=



000
FTUS44 KMEG 040211 AAA
TAFTUP
TAF AMD
KTUP 040211Z 0402/0424 22007KT P6SM VCSH SCT020 OVC050
      TEMPO 0402/0405 BKN020 OVC050
     FM040500 21005KT 6SM BR VCSH SCT006 OVC018
     FM040900 21004KT 3SM -SHRA BR VCTS BKN007 OVC018CB
      TEMPO 0409/0413 2SM TSRA OVC006CB
     FM041400 23007KT 6SM BR VCSH BKN009 OVC020
     FM041600 25009KT P6SM VCSH BKN020 OVC100
     FM041800 25009KT P6SM VCTS SCT030CB OVC100=



000
FTUS44 KMEG 040211 AAA
TAFTUP
TAF AMD
KTUP 040211Z 0402/0424 22007KT P6SM VCSH SCT020 OVC050
      TEMPO 0402/0405 BKN020 OVC050
     FM040500 21005KT 6SM BR VCSH SCT006 OVC018
     FM040900 21004KT 3SM -SHRA BR VCTS BKN007 OVC018CB
      TEMPO 0409/0413 2SM TSRA OVC006CB
     FM041400 23007KT 6SM BR VCSH BKN009 OVC020
     FM041600 25009KT P6SM VCSH BKN020 OVC100
     FM041800 25009KT P6SM VCTS SCT030CB OVC100=



000
FTUS44 KMEG 040209 AAA
TAFJBR
TAF AMD
KJBR 040209Z 0402/0424 VRB03KT P6SM BKN022 OVC050
     FM040600 VRB03KT 3SM BR OVC006
     FM041400 VRB03KT 6SM BR BKN009 OVC020
     FM041600 12005KT P6SM BKN020 OVC150
     FM041800 18007KT P6SM VCTS SCT030CB OVC150=



000
FTUS44 KMEG 040208 AAA
TAFMEM
TAF AMD
KMEM 040208Z 0402/0424 23006KT P6SM BKN015 OVC050
     FM040600 22005KT 4SM BR VCSH OVC007
     FM041400 23007KT 6SM BR VCSH BKN009 OVC020
     FM041600 23008KT P6SM VCSH BKN020 OVC100
     FM041800 23008KT P6SM VCTS SCT030CB OVC100=



000
FTUS44 KMEG 040113 AAB
TAFMKL
TAF AMD
KMKL 040113Z 0401/0424 21007KT 6SM -SHRA SCT015 OVC050
      TEMPO 0401/0403 4SM -SHRA BKN015 OVC050
     FM040300 21007KT P6SM SCT015 OVC050
     FM040600 22004KT 2SM BR OVC005
     FM041400 22005KT 5SM BR BKN008 OVC020
     FM041600 23007KT P6SM VCSH BKN015 OVC100
     FM041800 23007KT P6SM VCTS SCT030CB OVC100=



000
FTUS44 KMEG 040024 AAA
TAFMKL
TAF AMD
KMKL 040024Z 0400/0424 21007KT P6SM VCSH SCT015 OVC050
      TEMPO 0400/0402 BKN015 OVC050
     FM040600 22004KT 2SM BR OVC005
     FM041400 22005KT 5SM BR BKN008 OVC020
     FM041600 23007KT P6SM VCSH BKN015 OVC100
     FM041800 23007KT P6SM VCTS SCT030CB OVC100=



000
FTUS44 KMEG 040024 AAA
TAFMKL
TAF AMD
KMKL 040024Z 0400/0424 21007KT P6SM VCSH SCT015 OVC050
      TEMPO 0400/0402 BKN015 OVC050
     FM040600 22004KT 2SM BR OVC005
     FM041400 22005KT 5SM BR BKN008 OVC020
     FM041600 23007KT P6SM VCSH BKN015 OVC100
     FM041800 23007KT P6SM VCTS SCT030CB OVC100=



000
FTUS44 KMEG 032336
TAFMEM
TAF
KMEM 032336Z 0400/0424 22007KT P6SM VCTS SCT015CB OVC050
      TEMPO 0400/0402 BKN015CB OVC050
     FM040200 22006KT P6SM SCT015 OVC050
     FM040600 22005KT 4SM BR VCSH OVC007
     FM041400 23007KT 6SM BR VCSH BKN009 OVC020
     FM041600 23008KT P6SM VCSH BKN020 OVC100
     FM041800 23008KT P6SM VCTS SCT030CB OVC100=



000
FTUS44 KMEG 032336
TAFMKL
TAF
KMKL 032336Z 0400/0424 21007KT P6SM SCT015 OVC050
      TEMPO 0400/0402 BKN015 OVC050
     FM040200 21007KT P6SM VCSH SCT015 OVC050
     FM040600 22004KT 2SM BR OVC005
     FM041400 22005KT 5SM BR BKN008 OVC020
     FM041600 23007KT P6SM VCSH BKN015 OVC100
     FM041800 23007KT P6SM VCTS SCT030CB OVC100=



000
FTUS44 KMEG 032336
TAFTUP
TAF
KTUP 032336Z 0400/0424 21007KT P6SM VCSH SCT015 OVC035
      TEMPO 0400/0401 BKN015 OVC035
     FM040100 20007KT 6SM -SHRA VCTS BKN020 OVC035CB
      TEMPO 0401/0405 2SM TSRA OVC012CB
     FM040500 21005KT 6SM BR VCSH SCT006 OVC018
     FM040900 21004KT 3SM -SHRA BR VCTS BKN007 OVC018CB
      TEMPO 0409/0413 2SM TSRA OVC006CB
     FM041400 23007KT 6SM BR VCSH BKN009 OVC020
     FM041600 25009KT P6SM VCSH BKN020 OVC100
     FM041800 25009KT P6SM VCTS SCT030CB OVC100=



000
FTUS44 KMEG 032336
TAFJBR
TAF
KJBR 032336Z 0400/0424 22007KT P6SM SCT015 OVC050
      TEMPO 0400/0402 5SM -SHRA BKN015 OVC050
     FM040200 23005KT P6SM VCSH SCT015 OVC050
     FM040600 VRB03KT 3SM BR OVC006
     FM041400 VRB03KT 6SM BR BKN009 OVC020
     FM041600 12005KT P6SM BKN020 OVC150
     FM041800 18007KT P6SM VCTS SCT030CB OVC150=



000
FTUS44 KMEG 032057 AAB
TAFMEM
TAF AMD
KMEM 032057Z 0321/0418 23010KT P6SM VCSH SCT015 BKN060 OVC200
      TEMPO 0321/0324 6SM -SHRA BKN015
     FM040000 22006KT P6SM -SHRA VCTS SCT015 OVC050CB
      TEMPO 0400/0404 VRB10G20KT 2SM TSRA SCT009 OVC015CB
     FM040900 21004KT 3SM -DZ BR BKN006 OVC010
     FM041400 23007KT 6SM BR VCSH BKN009 OVC020=



000
FTUS44 KMEG 032032 AAA
TAFMKL
TAF AMD
KMKL 032032Z 0321/0418 24008KT P6SM VCSH SCT015 OVC100
      TEMPO 0321/0401 BKN015
     FM040100 22006KT P6SM -TSRA BKN015 OVC040CB
     FM040600 21004KT 5SM -SHRA BR VCTS BKN006 OVC015CB
      TEMPO 0409/0412 2SM -DZ BR OVC004
     FM041400 VRB03KT 6SM BR BKN009 OVC020=



000
FTUS44 KMEG 031924 CCA
TAFMEM
TAF COR
KMEM 031924Z 0319/0418 24008KT 6SM -SHRA VCTS SCT015 OVC045CB
      TEMPO 0319/0323 VRB10G20KT 2SM TSRA BKN015CB
     FM040000 22006KT P6SM VCTS SCT015 OVC050CB
     FM040200 22006KT 6SM -SHRA BR BKN015 OVC050
      TEMPO 0404/0408 4SM TSRA SCT009 OVC015CB
     FM040900 21004KT 3SM -DZ BR BKN006 OVC010
     FM041400 23007KT 6SM BR VCSH BKN009 OVC020=



000
FTUS44 KMEG 031923 AAA
TAFMEM
TAF AMD
KMEM 031923Z 0319/0418 24008KT 6SM -SHRA VCTS BKN015 OVC045CB
      TEMPO 0319/0323 VRB10G20KT 2SM TSRA BKN015CB
     FM040000 22006KT P6SM VCTS SCT015 OVC050CB
     FM040200 22006KT 6SM -SHRA BR BKN015 OVC050
      TEMPO 0404/0408 4SM TSRA SCT009 OVC015CB
     FM040900 21004KT 3SM -DZ BR BKN006 OVC010
     FM041400 23007KT 6SM BR VCSH BKN009 OVC020=



000
FTUS44 KMEG 031921 AAA
TAFTUP
TAF AMD
KTUP 031921Z 0319/0418 21008KT 6SM -TSRA SCT006 OVC025CB
      TEMPO 0319/0322 VRB10G20KT 2SM TSRA BKN006 OVC025CB
     FM032200 26008KT 6SM -SHRA VCTS BKN020 OVC035CB
      TEMPO 0322/0402 2SM TSRA BKN020CB
     FM040500 21006KT 6SM BR VCSH SCT006 OVC018
     FM040900 VRB03KT 4SM -SHRA BR VCTS BKN006 OVC018CB
     FM041400 23007KT 6SM BR VCSH BKN009 OVC020=



000
FTUS44 KMEG 031919 AAA
TAFJBR
TAF AMD
KJBR 031919Z 0319/0418 22010KT P6SM -SHRA VCTS BKN020 OVC050CB
      TEMPO 0319/0322 VRB10G20KT 2SM TSRA BKN012CB
     FM032200 23010KT 6SM -TSRA SCT020 OVC050CB
      TEMPO 0322/0402 3SM TSRA BKN020CB
     FM040200 22006KT 6SM BR VCSH SCT009 OVC020
     FM040700 VRB03KT 3SM BR BKN006 OVC010
     FM041400 03006KT 6SM BR BKN009 OVC020=



000
FTUS44 KMEG 031919 AAA
TAFJBR
TAF AMD
KJBR 031919Z 0319/0418 22010KT P6SM -SHRA VCTS BKN020 OVC050CB
      TEMPO 0319/0322 VRB10G20KT 2SM TSRA BKN012CB
     FM032200 23010KT 6SM -TSRA SCT020 OVC050CB
      TEMPO 0322/0402 3SM TSRA BKN020CB
     FM040200 22006KT 6SM BR VCSH SCT009 OVC020
     FM040700 VRB03KT 3SM BR BKN006 OVC010
     FM041400 03006KT 6SM BR BKN009 OVC020=



000
FTUS44 KMEG 031721
TAFMKL
TAF
KMKL 031721Z 0318/0418 24008KT 6SM -SHRA VCTS SCT035 OVC050CB
      TEMPO 0318/0322 VRB10G20KT 2SM TSRA SCT015 OVC035CB
     FM040300 22006KT P6SM VCSH BKN012 OVC030
     FM040600 21004KT 5SM BR BKN006 OVC010
      TEMPO 0409/0412 2SM -DZ BR OVC004
     FM041400 VRB03KT 6SM BR BKN009 OVC020=



000
FTUS44 KMEG 031721
TAFJBR
TAF
KJBR 031721Z 0318/0418 22010KT P6SM -SHRA VCTS SCT020 OVC050CB
      TEMPO 0318/0322 VRB10G20KT 2SM TSRA BKN020CB
     FM032200 23010KT 6SM -TSRA SCT020 OVC050CB
      TEMPO 0322/0402 3SM TSRA BKN020CB
     FM040200 22006KT 6SM BR VCSH SCT009 OVC020
     FM040700 VRB03KT 3SM BR BKN006 OVC010
     FM041400 03006KT 6SM BR BKN009 OVC020=



000
FTUS44 KMEG 031721
TAFTUP
TAF
KTUP 031721Z 0318/0418 21008KT 6SM -SHRA VCTS SCT025 OVC045CB
      TEMPO 0318/0322 VRB10G20KT 2SM TSRA BKN025CB
     FM032200 26008KT 6SM -SHRA VCTS BKN020 OVC035CB
      TEMPO 0322/0402 2SM TSRA BKN020CB
     FM040500 21006KT 6SM BR VCSH SCT006 OVC018
     FM040900 VRB03KT 4SM -SHRA BR VCTS BKN006 OVC018CB
     FM041400 23007KT 6SM BR VCSH BKN009 OVC020=



000
FTUS44 KMEG 031721
TAFMEM
TAF
KMEM 031721Z 0318/0418 24008KT 6SM -SHRA VCTS BKN025 OVC040CB
      TEMPO 0318/0322 VRB10G20KT 2SM TSRA BKN015CB
     FM040000 22006KT P6SM VCSH SCT015 OVC050
     FM040300 22006KT 6SM -SHRA BR BKN015 OVC050
      TEMPO 0405/0408 4SM TSRA SCT009 OVC015CB
     FM040900 21004KT 3SM -DZ BR BKN006 OVC010
     FM041400 23007KT 6SM BR VCSH BKN009 OVC020=



000
FTUS44 KMEG 031721
TAFMEM
TAF
KMEM 031721Z 0318/0418 24008KT 6SM -SHRA VCTS BKN025 OVC040CB
      TEMPO 0318/0322 VRB10G20KT 2SM TSRA BKN015CB
     FM040000 22006KT P6SM VCSH SCT015 OVC050
     FM040300 22006KT 6SM -SHRA BR BKN015 OVC050
      TEMPO 0405/0408 4SM TSRA SCT009 OVC015CB
     FM040900 21004KT 3SM -DZ BR BKN006 OVC010
     FM041400 23007KT 6SM BR VCSH BKN009 OVC020=



000
FTUS44 KMEG 031721
TAFJBR
TAF
KJBR 031721Z 0318/0418 22010KT P6SM -SHRA VCTS SCT020 OVC050CB
      TEMPO 0318/0322 VRB10G20KT 2SM TSRA BKN020CB
     FM032200 23010KT 6SM -TSRA SCT020 OVC050CB
      TEMPO 0322/0402 3SM TSRA BKN020CB
     FM040200 22006KT 6SM BR VCSH SCT009 OVC020
     FM040700 VRB03KT 3SM BR BKN006 OVC010
     FM041400 03006KT 6SM BR BKN009 OVC020=



000
FTUS44 KMEG 031721
TAFTUP
TAF
KTUP 031721Z 0318/0418 21008KT 6SM -SHRA VCTS SCT025 OVC045CB
      TEMPO 0318/0322 VRB10G20KT 2SM TSRA BKN025CB
     FM032200 26008KT 6SM -SHRA VCTS BKN020 OVC035CB
      TEMPO 0322/0402 2SM TSRA BKN020CB
     FM040500 21006KT 6SM BR VCSH SCT006 OVC018
     FM040900 VRB03KT 4SM -SHRA BR VCTS BKN006 OVC018CB
     FM041400 23007KT 6SM BR VCSH BKN009 OVC020=



000
FTUS44 KMEG 031721
TAFMKL
TAF
KMKL 031721Z 0318/0418 24008KT 6SM -SHRA VCTS SCT035 OVC050CB
      TEMPO 0318/0322 VRB10G20KT 2SM TSRA SCT015 OVC035CB
     FM040300 22006KT P6SM VCSH BKN012 OVC030
     FM040600 21004KT 5SM BR BKN006 OVC010
      TEMPO 0409/0412 2SM -DZ BR OVC004
     FM041400 VRB03KT 6SM BR BKN009 OVC020=



    US Dept of Commerce
    National Oceanic and Atmospheric Administration
    National Weather Service
    1325 East West Highway
    Silver Spring, MD 20910
    Page Author: NWS Internet Services Team
Disclaimer
Information Quality
Credits
Glossary
Privacy Policy
Freedom of Information Act (FOIA)
About Us
Career Opportunities